KILG

New Castle Airport

Wilmington, Delaware, USA
KILG 160520Z 1606/1706 06015G25KT 6SM -RA OVC012 TEMPO 1606/1608 4SM RA BR OVC008 FM160800 05014G25KT 4SM -RA OVC008 TEMPO 1608/1612 2SM RA BR OVC005 FM161200 04013G23KT 2SM -RADZ BR OVC005 FM161800 02012G20KT 4SM -RA OVC008 FM162200 36012KT P6SM OVC010 FM170300 33010KT P6SM OVC015
Issued Valid From Valid To
Dec-16 @ 05:20 UTC
(32 minutes ago)
Dec-16 @ 06:00 UTC
(in 8 minutes)
Dec-17 @ 06:00 UTC
(in 24 hours)
Dec-16 @ 06:00 to Dec-16 @ 08:00
KILG 160520Z 1606/1706 06015G25KT 6SM -RA OVC012
Wind Visibility Clouds Conditions
60° at 15 knots
 Gusting to 25 knots
6 miles
  • Overcast at 1,200' AGL
  • Light Rain
Temporary Dec-16 @ 06:00 to Dec-16 @ 08:00
TEMPO 1606/1608 4SM RA BR OVC008
Visibility Clouds Conditions
4 miles
  • Overcast at 800' AGL
  • Rain
  • Mist
Temporary Dec-16 @ 08:00 to Dec-16 @ 12:00
TEMPO 1608/1612 2SM RA BR OVC005
Visibility Clouds Conditions
2 miles
  • Overcast at 500' AGL
  • Rain
  • Mist
From Dec-16 @ 08:00 to Dec-16 @ 12:00
FM160800 05014G25KT 4SM -RA OVC008
Wind Visibility Clouds Conditions
50° at 14 knots
 Gusting to 25 knots
4 miles
  • Overcast at 800' AGL
  • Light Rain
From Dec-16 @ 12:00 to Dec-16 @ 18:00
FM161200 04013G23KT 2SM -RADZ BR OVC005
Wind Visibility Clouds Conditions
40° at 13 knots
 Gusting to 23 knots
2 miles
  • Overcast at 500' AGL
  • Light Rain
  • Light Drizzle
  • Mist
From Dec-16 @ 18:00 to Dec-16 @ 22:00
FM161800 02012G20KT 4SM -RA OVC008
Wind Visibility Clouds Conditions
20° at 12 knots
 Gusting to 20 knots
4 miles
  • Overcast at 800' AGL
  • Light Rain
From Dec-16 @ 22:00 to Dec-17 @ 03:00
FM162200 36012KT P6SM OVC010
Wind Visibility Clouds
360° at 12 knots Greater than 6 miles
  • Overcast at 1,000' AGL
From Dec-17 @ 03:00 to Dec-17 @ 06:00
FM170300 33010KT P6SM OVC015
Wind Visibility Clouds
330° at 10 knots Greater than 6 miles
  • Overcast at 1,500' AGL
KILG 160520Z 1606/1706 06015G25KT 6SM -RA OVC012 TEMPO 1606/1608 4SM RA BR OVC008 FM160800 05014G25KT 4SM -RA OVC008 TEMPO 1608/1612 2SM RA BR OVC005 FM161200 04013G23KT 2SM -RADZ BR OVC005 FM161800 02012G20KT 4SM -RA OVC008 FM162200 36012KT P6SM OVC010 FM170300 33010KT P6SM OVC015
Issued Dec-16 @ 05:20 UTC
(32 minutes ago)
Valid From Dec-16 @ 06:00 UTC
(in 8 minutes)
Valid To Dec-17 @ 06:00 UTC
(in 24 hours)
Dec-16 @ 06:00 - Dec-16 @ 08:00
Wind Visibility
60° at 15 knots
 Gusting to 25 knots
6 miles
Clouds
  • Overcast at 1,200' AGL
Conditions
  • Light Rain
Temporary Dec-16 @ 06:00 - Dec-16 @ 08:00
Clouds
  • Overcast at 800' AGL
Conditions
  • Rain
  • Mist
Temporary Dec-16 @ 08:00 - Dec-16 @ 12:00
Clouds
  • Overcast at 500' AGL
Conditions
  • Rain
  • Mist
From Dec-16 @ 08:00 - Dec-16 @ 12:00
Wind Visibility
50° at 14 knots
 Gusting to 25 knots
4 miles
Clouds
  • Overcast at 800' AGL
Conditions
  • Light Rain
From Dec-16 @ 12:00 - Dec-16 @ 18:00
Wind Visibility
40° at 13 knots
 Gusting to 23 knots
2 miles
Clouds
  • Overcast at 500' AGL
Conditions
  • Light Rain
  • Light Drizzle
  • Mist
From Dec-16 @ 18:00 - Dec-16 @ 22:00
Wind Visibility
20° at 12 knots
 Gusting to 20 knots
4 miles
Clouds
  • Overcast at 800' AGL
Conditions
  • Light Rain
From Dec-16 @ 22:00 - Dec-17 @ 03:00
Wind Visibility
360° at 12 knots Greater than 6 miles
Clouds
  • Overcast at 1,000' AGL
From Dec-17 @ 03:00 - Dec-17 @ 06:00
Wind Visibility
330° at 10 knots Greater than 6 miles
Clouds
  • Overcast at 1,500' AGL